createdAt,value
2023-04-15T00:00:52.503Z,89.25
2023-04-15T00:03:15.387Z,89.25
2023-04-15T00:05:38.549Z,89.23
2023-04-15T00:08:02.953Z,89.22
2023-04-15T00:10:27.536Z,89.20
2023-04-15T00:12:50.166Z,89.55
2023-04-15T00:15:12.861Z,89.43
2023-04-15T00:17:36.237Z,89.47
2023-04-15T00:20:00.054Z,89.52
2023-04-15T00:22:22.793Z,89.66
2023-04-15T00:24:45.367Z,89.67
2023-04-15T00:27:17.316Z,89.99
2023-04-15T00:29:40.042Z,90.17
2023-04-15T00:32:03.057Z,90.26
2023-04-15T00:34:25.777Z,90.24
2023-04-15T00:36:48.501Z,90.07
2023-04-15T00:39:11.121Z,90.16
2023-04-15T00:41:34.310Z,89.88
2023-04-15T00:43:57.926Z,89.99
2023-04-15T00:46:22.810Z,89.70
2023-04-15T00:48:46.976Z,89.45
2023-04-15T00:51:09.876Z,89.37
2023-04-15T00:53:32.441Z,89.16
2023-04-15T00:55:55.814Z,89.11
2023-04-15T00:58:19.196Z,88.69
2023-04-15T01:00:43.520Z,88.61
2023-04-15T01:03:06.339Z,88.44
2023-04-15T01:05:30.315Z,87.93
2023-04-15T01:07:53.140Z,87.43
2023-04-15T01:10:16.474Z,87.29
2023-04-15T01:12:39.700Z,87.65
2023-04-15T01:15:03.320Z,87.59
2023-04-15T01:17:26.096Z,87.67
2023-04-15T01:19:48.942Z,87.81
2023-04-15T01:22:11.858Z,87.67
2023-04-15T01:24:37.056Z,87.49
2023-04-15T01:27:00.020Z,87.51
2023-04-15T01:29:23.284Z,87.63
2023-04-15T01:31:53.853Z,87.67
2023-04-15T01:34:35.960Z,87.56
2023-04-15T01:37:17.105Z,87.79
2023-04-15T01:39:40.557Z,87.66
2023-04-15T01:42:04.239Z,87.51
2023-04-15T01:44:28.128Z,87.38
2023-04-15T01:46:52.170Z,87.53
2023-04-15T01:49:17.272Z,87.10
2023-04-15T01:51:41.101Z,87.46
2023-04-15T01:54:05.161Z,87.15
2023-04-15T01:56:28.996Z,87.32
2023-04-15T01:58:53.202Z,87.72
2023-04-15T02:01:19.728Z,87.72
2023-04-15T02:03:43.872Z,87.96
2023-04-15T02:06:07.672Z,88.15
2023-04-15T02:08:31.782Z,87.80
2023-04-15T02:10:55.669Z,87.68
2023-04-15T02:13:20.062Z,88.11
2023-04-15T02:15:50.976Z,88.06
2023-04-15T02:18:16.839Z,87.86
2023-04-15T02:20:40.770Z,88.07
2023-04-15T02:23:07.514Z,88.24
2023-04-15T02:25:31.516Z,87.90
2023-04-15T02:27:57.833Z,88.01
2023-04-15T02:30:24.027Z,87.79
2023-04-15T02:32:48.539Z,87.58
2023-04-15T02:35:12.585Z,87.80
2023-04-15T02:37:40.877Z,87.95
2023-04-15T02:40:09.549Z,88.12
2023-04-15T02:42:33.523Z,88.07
2023-04-15T02:44:59.448Z,87.91
2023-04-15T02:47:27.956Z,88.12
2023-04-15T02:49:52.304Z,87.69
2023-04-15T02:52:16.443Z,87.68
2023-04-15T02:54:40.248Z,87.77
2023-04-15T02:57:06.824Z,88.23
2023-04-15T02:59:31.001Z,88.44
2023-04-15T03:01:56.748Z,88.93
2023-04-15T03:04:20.972Z,89.12
2023-04-15T03:06:45.047Z,89.12
2023-04-15T03:09:08.973Z,88.73
2023-04-15T03:11:36.447Z,89.21
2023-04-15T03:14:00.805Z,88.96
2023-04-15T03:16:29.712Z,88.80
2023-04-15T03:18:55.222Z,88.72
2023-04-15T03:21:20.434Z,88.62
2023-04-15T03:23:46.166Z,88.44
2023-04-15T03:26:10.044Z,88.39
2023-04-15T03:28:34.195Z,88.62
2023-04-15T03:31:00.675Z,89.08
2023-04-15T03:33:24.794Z,89.31
2023-04-15T03:35:48.707Z,89.50
2023-04-15T03:38:12.582Z,89.54
2023-04-15T03:40:39.294Z,89.57
2023-04-15T03:43:03.160Z,89.74
2023-04-15T03:45:26.959Z,89.80
2023-04-15T03:47:50.872Z,89.41
2023-04-15T03:50:14.754Z,89.41
2023-04-15T03:52:38.711Z,89.39
2023-04-15T03:55:02.574Z,89.32
2023-04-15T03:57:26.548Z,89.60
2023-04-15T03:59:50.735Z,89.79
2023-04-15T04:02:14.629Z,89.83
2023-04-15T04:04:38.561Z,90.07
2023-04-15T04:07:02.306Z,89.93
2023-04-15T04:09:26.217Z,89.97
2023-04-15T04:11:50.193Z,90.09
2023-04-15T04:14:14.012Z,89.89
2023-04-15T04:16:37.904Z,89.63
2023-04-15T04:19:02.406Z,89.58
2023-04-15T04:21:26.846Z,89.48
2023-04-15T04:23:50.932Z,89.51
2023-04-15T04:26:14.777Z,89.67
2023-04-15T04:28:40.641Z,89.68
2023-04-15T04:31:04.547Z,89.78
2023-04-15T04:33:28.602Z,89.82
2023-04-15T04:35:52.413Z,90.01
2023-04-15T04:38:16.425Z,89.85
2023-04-15T04:40:40.413Z,89.47
2023-04-15T04:43:04.473Z,89.02
2023-04-15T04:45:28.374Z,88.22
2023-04-15T04:47:52.230Z,87.49
2023-04-15T04:50:16.784Z,86.61
2023-04-15T04:52:40.689Z,85.79
2023-04-15T04:55:05.419Z,85.30
2023-04-15T04:57:29.265Z,84.05
2023-04-15T04:59:53.220Z,83.29
2023-04-15T05:02:17.238Z,82.25
2023-04-15T05:04:41.873Z,82.54
2023-04-15T05:07:05.709Z,82.21
2023-04-15T05:09:32.286Z,82.94
2023-04-15T05:11:56.724Z,83.69
2023-04-15T05:14:22.184Z,83.56
2023-04-15T05:16:47.292Z,83.53
2023-04-15T05:19:11.054Z,83.30
2023-04-15T05:21:36.218Z,81.93
2023-04-15T05:24:01.211Z,81.09
2023-04-15T05:26:25.137Z,76.19
2023-04-15T05:28:49.725Z,70.76
2023-04-15T05:31:14.310Z,64.65
2023-04-15T05:33:38.234Z,60.23
2023-04-15T05:36:02.150Z,58.17
2023-04-15T05:38:26.241Z,60.03
2023-04-15T05:40:50.118Z,63.96
2023-04-15T05:43:14.073Z,65.27
2023-04-15T05:45:40.923Z,64.57
2023-04-15T05:48:04.734Z,61.03
2023-04-15T05:50:28.630Z,59.70
2023-04-15T05:52:52.616Z,61.83
2023-04-15T05:55:16.606Z,59.59
2023-04-15T05:57:40.795Z,63.10
2023-04-15T06:00:06.169Z,66.05
2023-04-15T06:02:33.654Z,63.01
2023-04-15T06:04:58.020Z,63.74
2023-04-15T06:07:21.940Z,63.30
2023-04-15T06:09:45.954Z,61.51
2023-04-15T06:12:12.422Z,61.28
2023-04-15T06:14:36.324Z,62.01
2023-04-15T06:17:00.189Z,63.27
2023-04-15T06:19:24.700Z,64.69
2023-04-15T06:21:48.837Z,66.90
2023-04-15T06:24:13.088Z,68.19
2023-04-15T06:26:36.831Z,69.83
2023-04-15T06:29:00.980Z,69.98
2023-04-15T06:31:24.953Z,68.71
2023-04-15T06:33:49.075Z,67.49
2023-04-15T06:36:13.006Z,66.20
2023-04-15T06:38:37.063Z,65.96
2023-04-15T06:41:01.303Z,65.26
2023-04-15T06:43:25.809Z,65.30
2023-04-15T06:45:49.790Z,64.99
2023-04-15T06:48:13.766Z,63.81
2023-04-15T06:50:37.782Z,62.60
2023-04-15T06:53:02.201Z,62.23
2023-04-15T06:55:26.049Z,63.44
2023-04-15T06:57:50.058Z,60.68
2023-04-15T07:00:14.518Z,61.64
2023-04-15T07:02:38.736Z,61.71
2023-04-15T07:05:02.960Z,60.65
2023-04-15T07:07:26.804Z,60.50
2023-04-15T07:12:28.514Z,63.15
2023-04-15T07:14:52.635Z,61.25
2023-04-15T07:17:16.714Z,59.35
2023-04-15T07:19:40.717Z,58.00
2023-04-15T07:22:04.934Z,56.29
2023-04-15T07:24:28.795Z,55.79
2023-04-15T07:26:59.424Z,55.38
2023-04-15T07:29:25.553Z,57.27
2023-04-15T07:31:49.600Z,54.19
2023-04-15T07:34:14.717Z,51.90
2023-04-15T07:36:38.627Z,52.26
2023-04-15T07:39:06.382Z,55.77
2023-04-15T07:41:31.130Z,56.28
2023-04-15T07:43:55.380Z,56.79
2023-04-15T07:46:19.295Z,57.37
2023-04-15T07:48:43.350Z,58.17
2023-04-15T07:51:07.127Z,58.21
2023-04-15T07:53:33.010Z,58.16
2023-04-15T07:55:57.502Z,58.23
2023-04-15T07:58:21.401Z,57.55
2023-04-15T08:00:45.818Z,56.51
2023-04-15T08:03:10.022Z,56.56
2023-04-15T08:05:34.678Z,58.18
2023-04-15T08:07:58.757Z,58.83
2023-04-15T08:10:23.079Z,56.66
2023-04-15T08:12:49.576Z,58.46
2023-04-15T08:15:13.513Z,56.95
2023-04-15T08:17:37.439Z,56.45
2023-04-15T08:20:01.378Z,56.36
2023-04-15T08:22:25.493Z,55.72
2023-04-15T08:24:49.342Z,56.79
2023-04-15T08:27:13.698Z,55.44
2023-04-15T08:29:37.538Z,55.74
2023-04-15T08:32:01.824Z,56.43
2023-04-15T08:34:25.668Z,57.10
2023-04-15T08:36:49.543Z,60.34
2023-04-15T08:39:13.553Z,59.49
2023-04-15T08:41:46.518Z,56.83
2023-04-15T08:44:11.373Z,57.88
2023-04-15T08:46:35.309Z,58.23
2023-04-15T08:48:59.928Z,57.93
2023-04-15T08:51:25.265Z,58.04
2023-04-15T08:53:50.514Z,57.48
2023-04-15T08:56:16.911Z,57.61
2023-04-15T08:58:41.651Z,56.12
2023-04-15T09:01:05.849Z,57.57
2023-04-15T09:03:30.783Z,58.36
2023-04-15T09:05:55.204Z,57.02
2023-04-15T09:08:19.132Z,56.66
2023-04-15T09:10:43.283Z,56.78
2023-04-15T09:13:07.244Z,57.00
2023-04-15T09:15:33.245Z,56.56
2023-04-15T09:17:57.377Z,54.96
2023-04-15T09:20:21.412Z,53.89
2023-04-15T09:22:47.265Z,54.97
2023-04-15T09:25:29.287Z,55.99
2023-04-15T09:27:58.166Z,56.90
2023-04-15T09:30:22.546Z,57.88
2023-04-15T09:32:57.409Z,60.04
2023-04-15T09:35:22.603Z,61.50
2023-04-15T09:37:46.591Z,60.91
2023-04-15T09:40:11.102Z,61.88
2023-04-15T09:42:35.026Z,61.31
2023-04-15T09:45:09.334Z,62.53
2023-04-15T09:47:33.265Z,61.78
2023-04-15T09:49:58.722Z,61.71
2023-04-15T09:52:22.789Z,62.46
2023-04-15T09:54:46.648Z,62.19
2023-04-15T09:57:10.859Z,60.33
2023-04-15T09:59:34.986Z,61.48
2023-04-15T10:01:59.857Z,63.89
2023-04-15T10:04:24.821Z,65.72
2023-04-15T10:06:48.962Z,66.82
2023-04-15T10:09:13.634Z,68.07
2023-04-15T10:11:38.579Z,68.42
2023-04-15T10:14:03.191Z,67.60
2023-04-15T10:16:31.623Z,68.53
2023-04-15T10:18:56.473Z,68.59
2023-04-15T10:21:22.702Z,68.96
2023-04-15T10:23:47.328Z,69.45
2023-04-15T10:26:12.534Z,67.91
2023-04-15T10:28:36.700Z,66.56
2023-04-15T10:31:01.936Z,65.82
2023-04-15T10:33:26.671Z,66.09
2023-04-15T10:35:51.945Z,66.83
2023-04-15T10:38:45.880Z,67.40
2023-04-15T10:41:24.708Z,68.12
2023-04-15T10:43:57.815Z,68.74
2023-04-15T10:46:41.660Z,68.25
2023-04-15T10:49:13.714Z,69.44
2023-04-15T10:51:42.195Z,69.68
2023-04-15T10:54:16.836Z,69.49
2023-04-15T10:56:45.507Z,69.83
2023-04-15T10:59:09.783Z,68.52
2023-04-15T11:01:53.769Z,71.06
2023-04-15T11:04:57.628Z,71.46
2023-04-15T11:08:02.801Z,70.96
2023-04-15T11:10:41.046Z,69.87
2023-04-15T11:13:17.288Z,68.73
2023-04-15T11:15:47.211Z,65.98
2023-04-15T11:18:22.244Z,68.20
2023-04-15T11:20:55.035Z,67.73
2023-04-15T11:23:20.463Z,68.53
2023-04-15T11:25:44.740Z,69.66
2023-04-15T11:28:08.774Z,68.28
2023-04-15T11:30:34.949Z,64.90
2023-04-15T11:33:04.558Z,64.12
2023-04-15T11:35:28.809Z,64.58
2023-04-15T11:37:53.127Z,63.81
2023-04-15T11:40:22.408Z,65.73
2023-04-15T11:42:49.988Z,65.10
2023-04-15T11:45:15.552Z,62.90
2023-04-15T11:47:40.573Z,63.84
2023-04-15T11:50:24.085Z,64.40
2023-04-15T11:52:57.246Z,63.71
2023-04-15T11:55:20.338Z,64.88
2023-04-15T11:57:43.238Z,65.24
2023-04-15T12:00:06.786Z,64.88
2023-04-15T12:02:33.320Z,66.07
2023-04-15T12:05:06.503Z,64.93
2023-04-15T12:07:29.262Z,64.74
2023-04-15T12:09:56.810Z,61.96
2023-04-15T12:12:19.617Z,61.33
2023-04-15T12:14:42.406Z,62.21
2023-04-15T12:17:06.575Z,64.03
2023-04-15T12:19:30.439Z,64.51
2023-04-15T12:22:00.531Z,64.23
2023-04-15T12:24:23.664Z,64.13
2023-04-15T12:26:48.675Z,63.92
2023-04-15T12:29:13.204Z,64.79
2023-04-15T12:31:36.934Z,62.10
2023-04-15T12:34:01.333Z,63.16
2023-04-15T12:36:24.234Z,62.20
2023-04-15T12:38:46.847Z,60.84
2023-04-15T12:41:09.816Z,62.50
2023-04-15T12:43:32.491Z,61.29
2023-04-15T12:45:55.893Z,61.88
2023-04-15T12:48:18.690Z,62.48
2023-04-15T12:50:41.385Z,61.49
2023-04-15T12:53:04.788Z,61.58
2023-04-15T12:55:27.781Z,61.81
2023-04-15T12:57:50.327Z,62.62
2023-04-15T13:00:13.546Z,61.37
2023-04-15T13:02:37.132Z,63.76
2023-04-15T13:05:00.125Z,62.44
2023-04-15T13:07:22.800Z,63.62
2023-04-15T13:09:45.662Z,64.08
2023-04-15T13:12:08.308Z,63.04
2023-04-15T13:14:31.184Z,60.97
2023-04-15T13:16:53.989Z,61.14
2023-04-15T13:19:19.319Z,60.63
2023-04-15T13:21:42.068Z,61.21
2023-04-15T13:24:07.233Z,61.85
2023-04-15T13:26:30.168Z,61.65
2023-04-15T13:28:52.811Z,60.62
2023-04-15T13:31:15.922Z,58.77
2023-04-15T13:33:39.236Z,58.12
2023-04-15T13:36:02.078Z,58.34
2023-04-15T13:38:25.562Z,58.38
2023-04-15T13:40:48.576Z,58.67
2023-04-15T13:43:11.685Z,58.18
2023-04-15T13:45:34.353Z,57.58
2023-04-15T13:47:57.508Z,57.89
2023-04-15T13:50:20.344Z,54.28
2023-04-15T13:52:43.054Z,55.43
2023-04-15T13:55:18.272Z,55.37
2023-04-15T13:57:42.758Z,55.79
2023-04-15T14:00:06.281Z,54.84
2023-04-15T14:02:29.265Z,55.11
2023-04-15T14:04:52.202Z,56.69
2023-04-15T14:07:15.035Z,57.66
2023-04-15T14:09:42.992Z,58.85
2023-04-15T14:12:06.669Z,58.61
2023-04-15T14:14:29.546Z,58.03
2023-04-15T14:16:52.232Z,59.14
2023-04-15T14:19:15.121Z,62.19
2023-04-15T14:21:58.478Z,63.03
2023-04-15T14:24:21.050Z,63.54
2023-04-15T14:26:44.762Z,63.56
2023-04-15T14:29:07.629Z,64.87
2023-04-15T14:31:30.341Z,66.44
2023-04-15T14:33:52.902Z,66.67
2023-04-15T14:36:16.067Z,66.74
2023-04-15T14:38:40.005Z,66.91
2023-04-15T14:41:02.809Z,66.61
2023-04-15T14:43:25.597Z,66.04
2023-04-15T14:45:48.286Z,65.67
2023-04-15T14:48:12.722Z,65.74
2023-04-15T14:50:36.465Z,65.45
2023-04-15T14:52:59.484Z,67.20
2023-04-15T14:55:22.143Z,67.74
2023-04-15T14:57:44.800Z,67.44
2023-04-15T15:00:10.027Z,68.28
2023-04-15T15:02:39.319Z,69.31
2023-04-15T15:05:03.612Z,69.22
2023-04-15T15:07:27.310Z,70.26
2023-04-15T15:12:27.551Z,71.30
2023-04-15T15:14:50.406Z,70.60
2023-04-15T15:17:13.063Z,71.51
2023-04-15T15:19:36.159Z,71.40
2023-04-15T15:21:59.004Z,72.20
2023-04-15T15:24:21.674Z,72.43
2023-04-15T15:26:44.354Z,72.64
2023-04-15T15:29:07.151Z,72.72
2023-04-15T15:31:30.065Z,72.67
2023-04-15T15:33:53.085Z,72.97
2023-04-15T15:36:16.360Z,72.37
2023-04-15T15:38:40.751Z,72.39
2023-04-15T15:41:05.193Z,72.03
2023-04-15T15:43:27.891Z,72.43
2023-04-15T15:45:52.316Z,73.44
2023-04-15T15:48:15.327Z,73.83
2023-04-15T15:50:38.146Z,76.53
2023-04-15T15:53:00.864Z,78.44
2023-04-15T15:55:25.296Z,80.44
2023-04-15T15:57:48.269Z,80.74
2023-04-15T16:00:12.715Z,81.90
2023-04-15T16:03:04.367Z,83.01
2023-04-15T16:05:19.568Z,81.34
2023-04-15T16:07:42.556Z,82.46
2023-04-15T16:10:06.040Z,82.16
2023-04-15T16:12:28.809Z,80.55
2023-04-15T16:14:51.582Z,80.25
2023-04-15T16:17:14.288Z,80.17
2023-04-15T16:19:36.925Z,80.74
2023-04-15T16:22:01.595Z,79.54
2023-04-15T16:24:24.226Z,80.11
2023-04-15T16:26:47.276Z,79.72
2023-04-15T16:29:10.334Z,79.14
2023-04-15T16:31:34.920Z,78.93
2023-04-15T16:33:58.142Z,80.29
2023-04-15T16:36:20.764Z,80.58
2023-04-15T16:38:45.356Z,81.60
2023-04-15T16:41:08.149Z,81.08
2023-04-15T16:43:35.244Z,81.60
2023-04-15T16:45:57.853Z,81.65
2023-04-15T16:48:21.214Z,82.47
2023-04-15T16:50:44.398Z,82.13
2023-04-15T16:53:07.107Z,82.60
2023-04-15T16:55:29.894Z,83.14
2023-04-15T16:58:02.369Z,82.89
2023-04-15T17:00:26.475Z,82.99
2023-04-15T17:02:49.844Z,83.00
2023-04-15T17:05:12.821Z,83.50
2023-04-15T17:07:35.652Z,83.38
2023-04-15T17:09:58.680Z,83.38
2023-04-15T17:12:21.372Z,83.83
2023-04-15T17:14:43.903Z,84.10
2023-04-15T17:17:06.932Z,83.60
2023-04-15T17:19:32.920Z,83.79
2023-04-15T17:22:02.350Z,83.86
2023-04-15T17:24:26.623Z,83.85
2023-04-15T17:26:54.740Z,83.65
2023-04-15T17:29:17.575Z,83.12
2023-04-15T17:31:44.018Z,83.79
2023-04-15T17:34:28.690Z,84.05
2023-04-15T17:37:31.619Z,83.51
2023-04-15T17:40:14.970Z,83.35
2023-04-15T17:42:58.736Z,84.03
2023-04-15T17:45:41.840Z,84.09
2023-04-15T17:48:26.363Z,84.66
2023-04-15T17:51:09.290Z,84.62
2023-04-15T17:53:52.309Z,85.05
2023-04-15T17:56:35.241Z,85.33
2023-04-15T17:59:18.223Z,85.83
2023-04-15T18:02:01.221Z,85.56
2023-04-15T18:04:44.123Z,85.20
2023-04-15T18:07:26.819Z,85.51
2023-04-15T18:10:09.784Z,85.66
2023-04-15T18:12:53.470Z,85.61
2023-04-15T18:15:36.168Z,85.66
2023-04-15T18:18:20.428Z,85.57
2023-04-15T18:20:56.221Z,85.69
2023-04-15T18:23:19.891Z,85.93
2023-04-15T18:25:43.857Z,86.23
2023-04-15T18:28:06.526Z,86.18
2023-04-15T18:30:29.668Z,86.30
2023-04-15T18:32:52.762Z,86.43
2023-04-15T18:35:17.192Z,86.49
2023-04-15T18:37:39.889Z,86.62
2023-04-15T18:40:02.614Z,86.72
2023-04-15T18:42:25.980Z,86.70
2023-04-15T18:44:49.402Z,86.97
2023-04-15T18:47:12.470Z,86.84
2023-04-15T18:49:35.437Z,86.95
2023-04-15T18:51:58.250Z,87.29
2023-04-15T18:54:20.957Z,87.25
2023-04-15T18:56:44.116Z,87.94
2023-04-15T18:59:22.918Z,88.30
2023-04-15T19:01:51.503Z,88.42
2023-04-15T19:04:14.797Z,88.66
2023-04-15T19:06:38.275Z,88.27
2023-04-15T19:09:02.514Z,88.08
2023-04-15T19:11:26.227Z,87.85
2023-04-15T19:13:52.374Z,87.92
2023-04-15T19:16:15.385Z,87.59
2023-04-15T19:18:38.409Z,87.16
2023-04-15T19:21:01.851Z,86.74
2023-04-15T19:23:24.955Z,86.73
2023-04-15T19:25:47.887Z,86.70
2023-04-15T19:28:10.573Z,86.43
2023-04-15T19:30:33.874Z,86.46
2023-04-15T19:32:57.265Z,86.50
2023-04-15T19:35:20.478Z,86.55
2023-04-15T19:37:44.099Z,86.86
2023-04-15T19:40:08.656Z,87.27
2023-04-15T19:42:31.664Z,86.94
2023-04-15T19:44:54.592Z,86.80
2023-04-15T19:47:17.475Z,86.74
2023-04-15T19:49:40.537Z,86.95
2023-04-15T19:52:04.517Z,86.95
2023-04-15T19:54:27.989Z,87.31
2023-04-15T19:56:50.970Z,87.50
2023-04-15T19:59:13.664Z,87.60
2023-04-15T20:01:36.619Z,87.63
2023-04-15T20:03:59.985Z,87.35
2023-04-15T20:06:23.199Z,86.93
2023-04-15T20:08:46.493Z,86.62
2023-04-15T20:11:10.215Z,86.84
2023-04-15T20:13:34.356Z,86.68
2023-04-15T20:15:57.431Z,86.48
2023-04-15T20:18:20.858Z,86.52
2023-04-15T20:20:43.674Z,86.35
2023-04-15T20:23:06.401Z,86.78
2023-04-15T20:25:28.971Z,87.06
2023-04-15T20:27:52.296Z,86.83
2023-04-15T20:30:15.008Z,86.47
2023-04-15T20:32:38.763Z,86.95
2023-04-15T20:35:03.196Z,87.26
2023-04-15T20:37:26.082Z,87.36
2023-04-15T20:39:48.923Z,86.74
2023-04-15T20:42:12.214Z,86.42
2023-04-15T20:44:34.853Z,86.50
2023-04-15T20:46:57.789Z,87.08
2023-04-15T20:49:20.427Z,87.31
2023-04-15T20:51:43.230Z,87.24
2023-04-15T20:54:06.750Z,87.12
2023-04-15T20:56:29.912Z,86.92
2023-04-15T20:58:52.538Z,86.65
2023-04-15T21:01:15.465Z,86.25
2023-04-15T21:03:38.559Z,87.03
2023-04-15T21:06:01.789Z,87.48
2023-04-15T21:08:29.716Z,87.14
2023-04-15T21:10:52.504Z,87.03
2023-04-15T21:13:17.659Z,86.49
2023-04-15T21:15:40.564Z,86.53
2023-04-15T21:18:03.542Z,86.48
2023-04-15T21:20:26.186Z,86.70
2023-04-15T21:22:49.109Z,86.87
2023-04-15T21:25:12.616Z,86.74
2023-04-15T21:27:35.208Z,86.34
2023-04-15T21:29:57.915Z,86.35
2023-04-15T21:32:20.627Z,86.16
2023-04-15T21:34:43.302Z,86.45
2023-04-15T21:37:05.837Z,86.86
2023-04-15T21:39:28.837Z,86.31
2023-04-15T21:41:51.540Z,86.56
2023-04-15T21:44:15.086Z,87.07
2023-04-15T21:46:37.885Z,87.42
2023-04-15T21:49:02.085Z,87.46
2023-04-15T21:51:24.784Z,86.92
2023-04-15T21:53:47.473Z,86.33
2023-04-15T21:56:10.149Z,86.52
2023-04-15T21:58:32.825Z,86.43
2023-04-15T22:01:00.030Z,86.51
2023-04-15T22:03:23.674Z,86.56
2023-04-15T22:05:46.342Z,86.30
2023-04-15T22:08:09.076Z,86.26
2023-04-15T22:10:31.956Z,85.94
2023-04-15T22:12:54.879Z,86.54
2023-04-15T22:15:17.460Z,87.05
2023-04-15T22:17:40.135Z,87.35
2023-04-15T22:20:03.747Z,87.30
2023-04-15T22:22:37.712Z,87.03
2023-04-15T22:25:07.769Z,86.75
2023-04-15T22:27:30.361Z,87.11
2023-04-15T22:29:53.313Z,87.40
2023-04-15T22:32:15.882Z,87.38
2023-04-15T22:34:38.599Z,87.19
2023-04-15T22:37:01.171Z,87.27
2023-04-15T22:39:23.860Z,87.76
2023-04-15T22:41:47.004Z,87.79
2023-04-15T22:44:09.679Z,87.76
2023-04-15T22:46:32.402Z,87.71
2023-04-15T22:48:55.133Z,87.97
2023-04-15T22:51:26.896Z,87.82
2023-04-15T22:53:50.673Z,87.48
2023-04-15T22:56:13.434Z,87.52
2023-04-15T22:58:36.153Z,87.39
2023-04-15T23:00:59.187Z,87.20
2023-04-15T23:03:21.957Z,87.02
2023-04-15T23:05:45.677Z,86.84
2023-04-15T23:08:08.587Z,87.02
2023-04-15T23:10:31.497Z,87.41
2023-04-15T23:12:54.090Z,87.93
2023-04-15T23:15:16.951Z,87.85
2023-04-15T23:17:39.780Z,87.58
2023-04-15T23:20:02.426Z,87.56
2023-04-15T23:22:26.244Z,87.57
2023-04-15T23:24:49.443Z,87.54
2023-04-15T23:27:12.057Z,87.31
2023-04-15T23:29:34.775Z,86.86
2023-04-15T23:31:57.426Z,86.70
2023-04-15T23:34:20.120Z,86.59
2023-04-15T23:36:42.920Z,86.90
2023-04-15T23:39:05.762Z,87.50
2023-04-15T23:41:28.441Z,88.06
2023-04-15T23:43:51.187Z,88.24
2023-04-15T23:46:13.930Z,88.20
2023-04-15T23:48:36.619Z,88.14
2023-04-15T23:51:00.587Z,88.05
2023-04-15T23:53:23.730Z,88.14
2023-04-15T23:55:46.472Z,88.02
2023-04-15T23:58:09.160Z,88.28
